Time;durP1;ratioP1;P1;durP2;ratioP2;P2;SDS_P1;SDS_P2;PMS_P1;PMS_P2;Temp;Humidity;BMP_temperature;BMP_pressure;BME280_temperature;BME280_humidity;BME280_pressure;Samples;Min_cycle;Max_cycle;Signal;HPM_P1;HPM_P2
2024/01/23 00:00:09;;;;;;;12.63;3.90;;;22.30;36.40;;;;;;5053817;28;20254;-48
2024/01/23 00:02:36;;;;;;;9.68;2.65;;;22.30;36.50;;;;;;5053742;28;20287;-49
2024/01/23 00:05:02;;;;;;;13.98;3.58;;;22.30;36.40;;;;;;5053599;28;20234;-54
2024/01/23 00:07:29;;;;;;;14.70;3.78;;;22.30;36.40;;;;;;5053181;28;20278;-48
2024/01/23 00:09:56;;;;;;;9.48;2.92;;;22.30;37.00;;;;;;5053182;28;20330;-50
2024/01/23 00:12:23;;;;;;;11.85;3.30;;;22.30;36.40;;;;;;5053055;28;20688;-50
2024/01/23 00:14:51;;;;;;;10.02;3.20;;;22.30;36.40;;;;;;5053489;28;20309;-50
2024/01/23 00:17:18;;;;;;;10.90;3.50;;;22.30;36.40;;;;;;5053230;28;20192;-48
2024/01/23 00:19:45;;;;;;;12.82;3.00;;;22.30;36.40;;;;;;5053234;28;20211;-54
2024/01/23 00:22:12;;;;;;;10.23;3.20;;;22.30;36.40;;;;;;5053332;28;20188;-51
2024/01/23 00:24:39;;;;;;;14.93;3.22;;;22.30;36.40;;;;;;5053098;28;20230;-52
2024/01/23 00:27:06;;;;;;;9.68;3.30;;;22.30;37.10;;;;;;5053237;28;20286;-53
2024/01/23 00:29:34;;;;;;;11.55;3.13;;;22.30;36.40;;;;;;5052979;28;20298;-49
2024/01/23 00:32:03;;;;;;;12.85;3.58;;;22.30;36.40;;;;;;5053214;28;20271;-49
2024/01/23 00:34:30;;;;;;;18.80;3.63;;;22.30;36.30;;;;;;5053119;28;20241;-51
2024/01/23 00:36:58;;;;;;;11.45;3.33;;;22.30;36.30;;;;;;5052886;28;20184;-48
2024/01/23 00:39:25;;;;;;;12.32;3.63;;;22.30;36.40;;;;;;5052939;28;20195;-51
2024/01/23 00:41:52;;;;;;;10.52;3.00;;;22.30;36.30;;;;;;5053068;28;20602;-49
2024/01/23 00:44:19;;;;;;;11.32;3.05;;;22.40;36.40;;;;;;5052360;28;20198;-54
2024/01/23 00:46:46;;;;;;;12.48;3.33;;;22.30;37.00;;;;;;5052617;28;20244;-49
2024/01/23 00:49:14;;;;;;;12.90;3.38;;;22.40;36.50;;;;;;5052800;28;20270;-49
2024/01/23 00:51:41;;;;;;;10.85;3.25;;;22.40;36.40;;;;;;5052471;28;20192;-53
2024/01/23 00:54:08;;;;;;;8.93;3.00;;;22.30;36.30;;;;;;5052650;28;20222;-49
2024/01/23 00:56:36;;;;;;;10.32;2.92;;;22.30;36.40;;;;;;5052852;28;20271;-48
2024/01/23 00:59:03;;;;;;;12.32;3.28;;;22.30;36.40;;;;;;5052380;28;20695;-50
2024/01/23 01:01:30;;;;;;;11.23;3.15;;;22.30;36.40;;;;;;5052576;28;20251;-51
2024/01/23 01:03:57;;;;;;;12.45;3.42;;;22.30;36.40;;;;;;5052650;28;20274;-47
2024/01/23 01:06:25;;;;;;;10.40;3.28;;;22.30;36.40;;;;;;5052611;28;20321;-50
2024/01/23 01:08:52;;;;;;;10.10;2.90;;;22.30;36.40;;;;;;5052377;28;20318;-47
2024/01/23 01:11:19;;;;;;;12.07;2.90;;;22.30;36.50;;;;;;5052760;28;20301;-53
2024/01/23 01:13:46;;;;;;;12.18;2.97;;;22.30;36.50;;;;;;5052142;28;20215;-51
2024/01/23 01:16:13;;;;;;;15.20;3.17;;;22.30;36.50;;;;;;5052702;28;20303;-50
2024/01/23 01:18:41;;;;;;;8.45;2.75;;;22.30;36.50;;;;;;5051914;28;20279;-50
2024/01/23 01:21:08;;;;;;;12.68;3.25;;;22.30;36.50;;;;;;5052067;28;20222;-48
2024/01/23 01:23:36;;;;;;;10.30;3.47;;;22.30;36.50;;;;;;5052083;28;20544;-50
2024/01/23 01:26:03;;;;;;;9.95;2.85;;;22.30;36.50;;;;;;5052533;28;20293;-50
2024/01/23 01:28:30;;;;;;;10.13;3.22;;;22.30;37.20;;;;;;5052069;28;20270;-51
2024/01/23 01:30:57;;;;;;;10.52;2.88;;;22.30;36.60;;;;;;5052396;28;20298;-49
2024/01/23 01:33:24;;;;;;;10.43;2.97;;;22.30;36.50;;;;;;5052276;28;20215;-49
2024/01/23 01:35:52;;;;;;;9.43;3.00;;;22.30;36.60;;;;;;5051976;28;20302;-50
2024/01/23 01:38:19;;;;;;;9.32;2.75;;;22.30;36.60;;;;;;5051914;28;20673;-51
2024/01/23 01:40:47;;;;;;;9.70;2.78;;;22.30;36.60;;;;;;5051986;28;20930;-49
2024/01/23 01:43:25;;;;;;;10.93;3.28;;;22.30;36.60;;;;;;5051920;28;20286;-50
2024/01/23 01:46:12;;;;;;;10.65;3.25;;;22.30;36.60;;;;;;5052104;28;20223;-46
2024/01/23 01:48:40;;;;;;;15.00;3.55;;;22.40;36.60;;;;;;5051677;28;20183;-51
2024/01/23 01:51:07;;;;;;;9.57;3.13;;;22.30;36.50;;;;;;5052324;28;20219;-46
2024/01/23 01:53:33;;;;;;;13.40;3.33;;;22.30;36.50;;;;;;5052029;28;20302;-49
2024/01/23 01:56:03;;;;;;;12.02;3.30;;;22.40;37.30;;;;;;5051441;28;20749;-50
2024/01/23 01:58:32;;;;;;;12.05;2.78;;;22.40;36.60;;;;;;5052176;28;20202;-50
2024/01/23 02:00:59;;;;;;;9.23;2.92;;;22.30;36.60;;;;;;5051897;28;20321;-51
2024/01/23 02:03:27;;;;;;;11.30;2.83;;;22.30;36.60;;;;;;5051706;28;20188;-49
2024/01/23 02:05:56;;;;;;;7.93;3.00;;;22.40;36.60;;;;;;5051853;28;20216;-47
2024/01/23 02:08:23;;;;;;;11.48;3.20;;;22.40;36.70;;;;;;5051554;28;20705;-49
2024/01/23 02:10:50;;;;;;;11.38;3.15;;;22.40;36.70;;;;;;5051727;28;20306;-50
2024/01/23 02:13:18;;;;;;;10.35;2.97;;;22.30;36.60;;;;;;5051511;28;20262;-47
2024/01/23 02:15:45;;;;;;;10.02;3.17;;;22.40;36.60;;;;;;5052067;28;20229;-50
2024/01/23 02:18:12;;;;;;;11.93;3.45;;;22.40;36.70;;;;;;5051676;28;20271;-53
2024/01/23 02:20:39;;;;;;;13.43;3.25;;;22.40;36.60;;;;;;5051623;28;20254;-48
2024/01/23 02:23:11;;;;;;;10.90;3.30;;;22.40;36.60;;;;;;5051821;28;20218;-53
2024/01/23 02:25:39;;;;;;;10.13;3.00;;;22.40;36.70;;;;;;5051426;28;20298;-52
2024/01/23 02:28:07;;;;;;;11.30;3.10;;;22.40;36.60;;;;;;5051825;28;20271;-49
2024/01/23 02:30:35;;;;;;;8.00;2.85;;;22.40;36.60;;;;;;5053696;28;20407;-46
2024/01/23 02:33:03;;;;;;;7.18;2.40;;;22.40;36.60;;;;;;5054820;28;20668;-48
2024/01/23 02:35:30;;;;;;;11.05;2.97;;;22.40;36.60;;;;;;5055218;28;20255;-49
2024/01/23 02:37:57;;;;;;;10.77;3.20;;;22.40;36.60;;;;;;5055389;28;20184;-50
2024/01/23 02:40:24;;;;;;;11.38;2.88;;;22.40;36.60;;;;;;5055072;28;20220;-51
2024/01/23 02:42:53;;;;;;;7.75;2.75;;;22.40;36.60;;;;;;5055368;28;20191;-49
2024/01/23 02:45:20;;;;;;;11.82;2.75;;;22.40;36.60;;;;;;5055246;28;20774;-50
2024/01/23 02:47:47;;;;;;;10.35;2.75;;;22.40;36.60;;;;;;5054986;28;20225;-52
2024/01/23 02:50:14;;;;;;;9.52;3.08;;;22.40;36.60;;;;;;5055188;28;20306;-51
2024/01/23 02:52:41;;;;;;;9.55;2.65;;;22.40;36.60;;;;;;5055113;28;20267;-52
2024/01/23 02:55:09;;;;;;;9.00;2.97;;;22.40;36.60;;;;;;5054608;28;20230;-49
2024/01/23 02:57:36;;;;;;;10.90;2.80;;;22.40;36.60;;;;;;5055175;28;20273;-47
2024/01/23 03:00:05;;;;;;;12.32;3.10;;;22.40;36.60;;;;;;5054658;28;20220;-50
2024/01/23 03:02:32;;;;;;;7.85;2.78;;;22.40;36.60;;;;;;5054907;28;20271;-49
2024/01/23 03:04:59;;;;;;;9.13;2.88;;;22.40;36.60;;;;;;5054817;28;20215;-48
2024/01/23 03:07:26;;;;;;;9.80;2.88;;;22.40;36.60;;;;;;5054897;28;20203;-50
2024/01/23 03:09:53;;;;;;;13.35;2.90;;;22.40;36.60;;;;;;5054364;28;20330;-52
2024/01/23 03:12:22;;;;;;;12.52;3.08;;;22.40;37.20;;;;;;5054505;28;20210;-48
2024/01/23 03:14:50;;;;;;;11.55;2.50;;;22.40;36.60;;;;;;5054624;28;20227;-51
2024/01/23 03:17:19;;;;;;;9.27;2.20;;;22.40;36.60;;;;;;5054815;28;20192;-52
2024/01/23 03:19:46;;;;;;;9.52;2.22;;;22.40;36.60;;;;;;5054187;28;20594;-47
2024/01/23 03:22:13;;;;;;;8.27;3.00;;;22.40;36.60;;;;;;5054334;28;20617;-50
2024/01/23 03:24:41;;;;;;;11.25;2.90;;;22.40;37.20;;;;;;5054199;28;20564;-49
2024/01/23 03:27:08;;;;;;;11.75;2.72;;;22.40;36.60;;;;;;5053937;28;20567;-51
2024/01/23 03:29:41;;;;;;;11.65;2.67;;;22.40;36.60;;;;;;5054309;28;20201;-49
2024/01/23 03:32:08;;;;;;;10.95;2.80;;;22.40;36.60;;;;;;5054407;28;20188;-50
2024/01/23 03:34:37;;;;;;;9.05;2.58;;;22.40;36.70;;;;;;5054139;28;20224;-50
2024/01/23 03:37:04;;;;;;;7.05;2.50;;;22.40;36.60;;;;;;5054339;28;20192;-52
2024/01/23 03:39:32;;;;;;;11.80;3.22;;;22.40;36.70;;;;;;5053818;28;20280;-53
2024/01/23 03:41:59;;;;;;;10.90;2.78;;;22.40;36.70;;;;;;5053584;28;20305;-48
2024/01/23 03:44:26;;;;;;;9.50;2.90;;;22.40;36.70;;;;;;5054188;28;20195;-52
2024/01/23 03:46:53;;;;;;;8.30;2.70;;;22.40;36.70;;;;;;5054228;28;20314;-52
2024/01/23 03:49:21;;;;;;;11.27;2.85;;;22.40;36.70;;;;;;5053570;28;20721;-51
2024/01/23 03:51:50;;;;;;;9.25;2.60;;;22.40;36.70;;;;;;5053921;28;20212;-50
2024/01/23 03:54:18;;;;;;;11.15;2.92;;;22.40;36.70;;;;;;5053882;28;20219;-51
2024/01/23 03:56:45;;;;;;;9.30;2.80;;;22.40;36.70;;;;;;5053892;28;20298;-49
2024/01/23 03:59:12;;;;;;;11.45;2.85;;;22.40;36.70;;;;;;5053850;28;20278;-50
2024/01/23 04:01:39;;;;;;;9.88;2.67;;;22.40;36.70;;;;;;5054317;28;20303;-51
2024/01/23 04:04:06;;;;;;;8.75;2.90;;;22.40;36.70;;;;;;5053446;28;20278;-48
2024/01/23 04:06:33;;;;;;;10.13;2.90;;;22.40;36.70;;;;;;5053814;28;20298;-54
2024/01/23 04:09:02;;;;;;;10.38;2.80;;;22.30;36.70;;;;;;5053390;28;20231;-47
2024/01/23 04:11:30;;;;;;;9.85;2.47;;;22.40;36.70;;;;;;5053184;28;20273;-46
2024/01/23 04:13:57;;;;;;;9.18;3.20;;;22.40;36.80;;;;;;5053554;28;20216;-51
2024/01/23 04:16:24;;;;;;;12.13;2.38;;;22.40;36.70;;;;;;5053739;28;20251;-49
2024/01/23 04:18:54;;;;;;;10.73;2.70;;;22.40;36.70;;;;;;5051399;28;20194;-50
2024/01/23 04:21:22;;;;;;;9.25;2.60;;;22.40;37.40;;;;;;5053024;28;20223;-47
2024/01/23 04:23:49;;;;;;;11.80;2.83;;;22.40;36.80;;;;;;5053279;28;20215;-50
2024/01/23 04:26:18;;;;;;;9.20;2.40;;;22.40;36.80;;;;;;5053145;28;20238;-49
2024/01/23 04:28:46;;;;;;;9.10;2.63;;;22.40;36.80;;;;;;5053056;28;20568;-48
2024/01/23 04:31:14;;;;;;;10.23;2.90;;;22.30;36.80;;;;;;5053102;28;20620;-46
2024/01/23 04:33:41;;;;;;;9.48;2.67;;;22.30;36.80;;;;;;5052826;28;20191;-49
2024/01/23 04:36:08;;;;;;;12.57;3.33;;;22.30;36.80;;;;;;5053180;28;20685;-51
2024/01/23 04:38:35;;;;;;;10.10;3.65;;;22.30;36.80;;;;;;5052780;28;20607;-51
2024/01/23 04:41:02;;;;;;;12.25;2.88;;;22.40;36.80;;;;;;5052600;28;20223;-49
2024/01/23 04:43:30;;;;;;;11.90;3.58;;;22.30;36.80;;;;;;5053051;28;20271;-45
2024/01/23 04:45:57;;;;;;;11.77;3.45;;;22.30;36.80;;;;;;5052787;28;20215;-51
2024/01/23 04:48:24;;;;;;;12.82;3.28;;;22.30;36.80;;;;;;5052598;28;20279;-47
2024/01/23 04:50:50;;;;;;;12.70;3.05;;;22.30;36.80;;;;;;5053025;28;20226;-48
2024/01/23 04:53:17;;;;;;;10.38;2.60;;;22.40;37.00;;;;;;5052062;28;20206;-51
2024/01/23 04:55:44;;;;;;;11.60;3.63;;;22.30;37.60;;;;;;5052421;28;20231;-49
2024/01/23 04:58:11;;;;;;;10.38;3.00;;;22.30;36.90;;;;;;5052790;28;20183;-48
2024/01/23 05:00:40;;;;;;;10.82;2.95;;;22.30;36.90;;;;;;5052471;28;20723;-48
2024/01/23 05:03:06;;;;;;;13.18;3.22;;;22.40;37.00;;;;;;5052559;28;20286;-50
2024/01/23 05:05:33;;;;;;;10.63;3.03;;;22.40;37.00;;;;;;5052719;28;20330;-50
2024/01/23 05:08:00;;;;;;;13.15;3.50;;;22.40;37.10;;;;;;5052217;28;20673;-50
2024/01/23 05:10:27;;;;;;;11.65;2.80;;;22.40;37.00;;;;;;5052152;28;20310;-50
2024/01/23 05:12:54;;;;;;;12.32;3.33;;;22.40;37.00;;;;;;5052713;28;20201;-51
2024/01/23 05:15:21;;;;;;;10.70;3.17;;;22.30;37.10;;;;;;5052366;28;20603;-48
2024/01/23 05:17:49;;;;;;;15.45;3.25;;;22.40;37.10;;;;;;5052378;28;20363;-50
2024/01/23 05:20:16;;;;;;;10.43;3.65;;;22.40;37.10;;;;;;5052589;28;20302;-50
2024/01/23 05:22:43;;;;;;;11.90;3.97;;;22.40;37.10;;;;;;5052413;28;20279;-52
2024/01/23 05:25:10;;;;;;;12.98;2.92;;;22.40;37.20;;;;;;5052006;28;20215;-50
2024/01/23 05:27:37;;;;;;;14.95;3.53;;;22.30;37.10;;;;;;5052392;28;20198;-51
2024/01/23 05:30:06;;;;;;;12.05;3.38;;;22.40;37.20;;;;;;5052236;28;20303;-47
2024/01/23 05:32:33;;;;;;;13.95;3.17;;;22.40;37.20;;;;;;5051930;28;20187;-47
2024/01/23 05:35:03;;;;;;;12.35;3.28;;;22.40;37.20;;;;;;5051802;28;20584;-54
2024/01/23 05:37:31;;;;;;;11.27;2.88;;;22.40;37.30;;;;;;5052249;28;20191;-50
2024/01/23 05:39:58;;;;;;;10.15;2.90;;;22.40;37.30;;;;;;5051786;28;20198;-50
2024/01/23 05:42:25;;;;;;;13.63;3.47;;;22.40;37.30;;;;;;5052243;28;20196;-49
2024/01/23 05:44:52;;;;;;;11.10;3.22;;;22.40;37.30;;;;;;5052002;28;20278;-52
2024/01/23 05:47:19;;;;;;;12.00;3.38;;;22.40;37.30;;;;;;5051535;28;20198;-50
2024/01/23 05:49:46;;;;;;;12.55;3.50;;;22.40;38.00;;;;;;5051993;28;20219;-50
2024/01/23 05:52:15;;;;;;;13.13;3.35;;;22.40;37.30;;;;;;5052163;28;20271;-51
2024/01/23 05:54:44;;;;;;;13.02;3.05;;;22.40;37.40;;;;;;5051852;28;20220;-49
2024/01/23 05:57:11;;;;;;;15.18;3.83;;;22.40;37.40;;;;;;5052068;28;20191;-49
2024/01/23 05:59:40;;;;;;;10.80;3.22;;;22.40;37.40;;;;;;5052027;28;20192;-51
2024/01/23 06:02:07;;;;;;;15.18;3.38;;;22.40;37.50;;;;;;5051915;28;20219;-49
2024/01/23 06:04:34;;;;;;;12.07;3.38;;;22.40;37.40;;;;;;5052309;28;20287;-49
2024/01/23 06:07:02;;;;;;;10.48;3.03;;;22.40;37.50;;;;;;5056228;28;20310;-48
2024/01/23 06:09:30;;;;;;;12.60;3.72;;;22.40;37.50;;;;;;5055101;28;20263;-50
2024/01/23 06:11:57;;;;;;;15.40;3.42;;;22.40;37.50;;;;;;5055628;28;20314;-52
2024/01/23 06:14:24;;;;;;;13.07;3.47;;;22.40;37.50;;;;;;5055691;28;20271;-50
2024/01/23 06:16:51;;;;;;;11.30;4.00;;;22.40;37.50;;;;;;5055665;28;20619;-48
2024/01/23 06:19:18;;;;;;;14.75;3.55;;;22.40;37.50;;;;;;5055707;28;20253;-52
2024/01/23 06:21:45;;;;;;;13.00;3.22;;;22.40;37.50;;;;;;5055876;28;20219;-48
2024/01/23 06:24:12;;;;;;;11.80;3.25;;;22.40;37.50;;;;;;5055338;28;20290;-50
2024/01/23 06:26:41;;;;;;;14.25;3.67;;;22.40;37.50;;;;;;5055792;28;20222;-49
2024/01/23 06:29:07;;;;;;;13.02;3.50;;;22.40;37.60;;;;;;5055713;28;20291;-50
2024/01/23 06:31:35;;;;;;;12.48;3.42;;;22.40;37.60;;;;;;5055375;28;20650;-49
2024/01/23 06:34:04;;;;;;;13.15;3.30;;;22.40;37.60;;;;;;5055534;28;20187;-48
2024/01/23 06:36:31;;;;;;;13.13;3.03;;;22.40;37.70;;;;;;5055497;28;20293;-49
2024/01/23 06:38:58;;;;;;;12.35;3.55;;;22.40;37.60;;;;;;5055092;28;20219;-51
2024/01/23 06:41:25;;;;;;;13.68;3.70;;;22.40;37.60;;;;;;5055487;28;20216;-50
2024/01/23 06:43:53;;;;;;;11.32;3.00;;;22.40;37.60;;;;;;5055333;28;20190;-49
2024/01/23 06:46:21;;;;;;;10.38;3.13;;;22.40;37.70;;;;;;5054911;28;20215;-52
2024/01/23 06:48:48;;;;;;;11.75;2.92;;;22.40;37.70;;;;;;5055195;28;20196;-50
2024/01/23 06:51:15;;;;;;;11.68;3.15;;;22.40;37.70;;;;;;5055305;28;20298;-49
2024/01/23 06:53:42;;;;;;;16.25;3.47;;;22.40;37.70;;;;;;5054468;28;20675;-50
2024/01/23 06:56:08;;;;;;;11.90;3.50;;;22.40;37.70;;;;;;5055087;28;20572;-54
2024/01/23 06:58:35;;;;;;;11.50;3.22;;;22.40;37.70;;;;;;5055052;28;20275;-54
2024/01/23 07:01:04;;;;;;;10.75;3.08;;;22.40;37.80;;;;;;5054770;28;20322;-50
2024/01/23 07:03:31;;;;;;;14.02;3.67;;;22.40;37.80;;;;;;5054614;28;20194;-52
2024/01/23 07:05:58;;;;;;;11.05;3.47;;;22.40;37.80;;;;;;5055005;28;20306;-49
2024/01/23 07:08:24;;;;;;;10.02;3.10;;;22.40;37.80;;;;;;5054227;28;20224;-54
2024/01/23 07:10:51;;;;;;;11.35;3.08;;;22.40;37.80;;;;;;5054979;28;20319;-49
2024/01/23 07:13:21;;;;;;;12.32;3.28;;;22.40;37.80;;;;;;5054920;28;20183;-50
2024/01/23 07:15:48;;;;;;;11.35;3.63;;;22.40;37.80;;;;;;5054215;28;20317;-51
2024/01/23 07:18:16;;;;;;;11.70;3.58;;;22.40;37.90;;;;;;5053876;28;20271;-51
2024/01/23 07:20:43;;;;;;;13.82;4.03;;;22.40;37.90;;;;;;5054640;28;20302;-51
2024/01/23 07:23:10;;;;;;;10.88;3.15;;;22.40;37.90;;;;;;5054227;28;20188;-50
2024/01/23 07:25:37;;;;;;;10.43;3.58;;;22.40;37.90;;;;;;5054469;28;20303;-49
2024/01/23 07:28:04;;;;;;;13.10;3.13;;;22.40;38.00;;;;;;5054479;28;20267;-48
2024/01/23 07:30:31;;;;;;;10.10;3.33;;;22.40;38.00;;;;;;5054140;28;20227;-48
2024/01/23 07:32:58;;;;;;;10.63;3.10;;;22.40;38.00;;;;;;5054427;28;20275;-49
2024/01/23 07:35:26;;;;;;;9.95;3.30;;;22.40;38.00;;;;;;5054198;28;20310;-50
2024/01/23 07:37:53;;;;;;;9.25;3.08;;;22.50;38.10;;;;;;5053840;28;20279;-48
2024/01/23 07:40:20;;;;;;;11.05;3.45;;;22.40;38.00;;;;;;5052849;28;20250;-51
2024/01/23 07:42:47;;;;;;;11.75;3.42;;;22.40;38.00;;;;;;5054098;28;20198;-50
2024/01/23 07:45:14;;;;;;;14.15;3.55;;;22.40;38.00;;;;;;5053675;28;20573;-51
2024/01/23 07:47:42;;;;;;;10.95;3.35;;;22.40;38.10;;;;;;5053720;28;20190;-50
2024/01/23 07:50:11;;;;;;;12.35;3.65;;;22.40;38.10;;;;;;5043443;28;20198;-49
2024/01/23 07:52:39;;;;;;;12.90;3.20;;;22.40;38.00;;;;;;5048397;28;20240;-52
2024/01/23 07:55:07;;;;;;;11.68;3.50;;;22.40;38.30;;;;;;5052747;28;20711;-52
2024/01/23 07:57:34;;;;;;;12.15;3.20;;;22.50;38.50;;;;;;5049249;28;20282;-50
2024/01/23 08:00:01;;;;;;;13.20;3.40;;;22.60;39.20;;;;;;5050703;28;20270;-56
2024/01/23 08:02:28;;;;;;;12.63;3.38;;;22.70;38.60;;;;;;5046757;28;20703;-49
2024/01/23 08:04:55;;;;;;;14.60;3.28;;;22.80;38.70;;;;;;5059737;28;20265;-49
2024/01/23 08:07:22;;;;;;;11.30;3.47;;;22.90;38.90;;;;;;5052121;28;20562;-54
2024/01/23 08:09:50;;;;;;;13.18;3.92;;;22.90;38.80;;;;;;5051633;28;20770;-48
2024/01/23 08:12:18;;;;;;;13.25;3.25;;;23.00;38.90;;;;;;5052157;28;20302;-50
2024/01/23 08:14:45;;;;;;;11.10;2.95;;;23.00;38.90;;;;;;5050956;28;20202;-51
2024/01/23 08:17:12;;;;;;;12.80;3.22;;;23.10;39.00;;;;;;5050479;28;20238;-53
2024/01/23 08:19:40;;;;;;;12.93;3.35;;;23.10;39.00;;;;;;5051391;28;20198;-48
2024/01/23 08:22:08;;;;;;;11.48;3.55;;;23.10;39.00;;;;;;5044608;28;20267;-51
2024/01/23 08:24:35;;;;;;;13.65;3.28;;;23.20;39.10;;;;;;5045733;28;20187;-53
2024/01/23 08:27:05;;;;;;;10.88;3.50;;;23.10;39.00;;;;;;5051733;28;20227;-54
2024/01/23 08:29:32;;;;;;;15.98;3.10;;;23.20;39.10;;;;;;5044811;28;20188;-55
2024/01/23 08:31:59;;;;;;;11.70;3.58;;;23.20;39.10;;;;;;5048210;28;20314;-52
2024/01/23 08:34:28;;;;;;;13.27;3.50;;;23.20;39.10;;;;;;5049579;28;20279;-47
2024/01/23 08:36:55;;;;;;;12.82;3.25;;;23.20;39.10;;;;;;5049525;28;20761;-52
2024/01/23 08:39:22;;;;;;;17.98;3.92;;;23.20;39.10;;;;;;5040471;28;20195;-48
2024/01/23 08:41:52;;;;;;;12.52;3.00;;;23.20;39.10;;;;;;5045104;28;20219;-54
2024/01/23 08:44:21;;;;;;;12.95;3.08;;;23.20;39.10;;;;;;5041340;28;20199;-56
2024/01/23 08:46:48;;;;;;;12.25;3.33;;;23.20;39.10;;;;;;5051403;28;20220;-57
2024/01/23 08:49:20;;;;;;;13.10;3.38;;;23.20;39.10;;;;;;5041052;28;20275;-55
2024/01/23 08:51:47;;;;;;;13.88;3.28;;;23.20;39.10;;;;;;5034732;28;20261;-57
2024/01/23 08:54:18;;;;;;;12.98;3.67;;;23.10;39.00;;;;;;5056872;28;20695;-57
2024/01/23 08:56:46;;;;;;;13.52;3.10;;;23.10;39.00;;;;;;5040366;28;20253;-57
2024/01/23 08:59:13;;;;;;;15.32;3.03;;;23.10;39.00;;;;;;5037421;28;20194;-57
2024/01/23 09:01:46;;;;;;;11.60;3.08;;;23.10;39.00;;;;;;5046976;28;20310;-56
2024/01/23 09:04:14;;;;;;;12.68;3.20;;;23.10;39.00;;;;;;5047672;28;20777;-58
2024/01/23 09:06:45;;;;;;;14.32;3.33;;;23.10;39.00;;;;;;5034749;28;20251;-56
2024/01/23 09:09:15;;;;;;;13.98;3.22;;;23.10;39.00;;;;;;5048094;28;20223;-54
2024/01/23 09:11:47;;;;;;;12.88;3.13;;;23.10;39.00;;;;;;5048219;28;20216;-56
2024/01/23 09:14:14;;;;;;;10.38;3.50;;;23.10;39.00;;;;;;5054508;28;20188;-55
2024/01/23 09:16:42;;;;;;;12.32;3.25;;;23.10;39.00;;;;;;5047049;28;20227;-57
2024/01/23 09:19:10;;;;;;;13.85;3.03;;;23.20;39.10;;;;;;5047013;28;20200;-57
2024/01/23 09:21:39;;;;;;;13.20;3.30;;;23.20;39.10;;;;;;5047135;28;20273;-57
2024/01/23 09:24:10;;;;;;;12.20;3.20;;;23.20;39.10;;;;;;5048929;28;20195;-58
2024/01/23 09:26:49;;;;;;;15.45;3.80;;;23.30;39.10;;;;;;5049016;28;20710;-57
2024/01/23 09:29:16;;;;;;;13.18;3.50;;;23.30;39.00;;;;;;5048854;28;20195;-56
2024/01/23 09:31:56;;;;;;;14.40;3.20;;;23.30;39.00;;;;;;5049000;28;20239;-57
2024/01/23 09:34:29;;;;;;;10.60;3.25;;;23.30;39.00;;;;;;5052456;28;20222;-57
2024/01/23 09:37:13;;;;;;;12.98;3.08;;;23.30;39.00;;;;;;5047992;28;20296;-58
2024/01/23 09:39:45;;;;;;;13.93;3.28;;;23.30;39.10;;;;;;5047728;28;20192;-55
2024/01/23 09:42:16;;;;;;;16.27;3.58;;;23.30;39.10;;;;;;5049093;28;20306;-53
2024/01/23 09:44:52;;;;;;;15.60;3.80;;;23.20;38.90;;;;;;5048975;28;20670;-56
2024/01/23 09:47:24;;;;;;;14.27;3.30;;;23.20;38.80;;;;;;5048151;28;20219;-57
2024/01/23 09:49:53;;;;;;;16.65;3.92;;;23.20;38.90;;;;;;5047768;28;20199;-56
2024/01/23 09:52:21;;;;;;;12.43;3.83;;;23.20;38.80;;;;;;5049139;28;20212;-55
2024/01/23 09:54:54;;;;;;;16.25;3.15;;;23.30;39.80;;;;;;5048980;28;20195;-55
2024/01/23 09:57:29;;;;;;;12.38;3.15;;;23.20;39.10;;;;;;5048062;28;20267;-55
2024/01/23 09:59:59;;;;;;;13.10;3.47;;;23.20;39.10;;;;;;5048760;28;20187;-57
2024/01/23 10:02:29;;;;;;;11.07;3.42;;;23.20;39.10;;;;;;5048539;28;20259;-54
2024/01/23 10:04:57;;;;;;;12.10;3.47;;;23.20;39.10;;;;;;5048691;28;20739;-58
2024/01/23 10:07:26;;;;;;;10.75;3.42;;;23.20;39.10;;;;;;5045407;28;20227;-57
2024/01/23 10:09:59;;;;;;;15.60;3.47;;;23.30;39.10;;;;;;5042997;28;20227;-55
2024/01/23 10:12:26;;;;;;;14.23;3.75;;;23.30;39.10;;;;;;5048620;28;20711;-56
2024/01/23 10:14:53;;;;;;;16.55;3.90;;;23.30;39.20;;;;;;5048523;28;20191;-57
2024/01/23 10:17:20;;;;;;;9.52;3.10;;;23.40;39.20;;;;;;5031155;28;20327;-56
2024/01/23 10:19:55;;;;;;;12.68;3.40;;;23.40;39.20;;;;;;5044891;28;20203;-57
2024/01/23 10:22:22;;;;;;;9.15;3.13;;;23.50;39.30;;;;;;5048885;28;20214;-58
2024/01/23 10:24:58;;;;;;;12.65;3.28;;;23.50;39.30;;;;;;5047455;28;20219;-56
2024/01/23 10:27:32;;;;;;;12.68;3.60;;;23.60;39.40;;;;;;5047365;28;20211;-56
2024/01/23 10:29:59;;;;;;;16.13;3.33;;;23.60;39.40;;;;;;5040851;28;20188;-56
2024/01/23 10:32:31;;;;;;;13.25;3.40;;;23.60;39.10;;;;;;5042575;28;20758;-56
2024/01/23 10:35:15;;;;;;;10.27;3.33;;;23.70;39.00;;;;;;5046627;28;20215;-57
2024/01/23 10:37:47;;;;;;;13.25;3.13;;;23.70;38.90;;;;;;5046528;28;20231;-57
2024/01/23 10:40:41;;;;;;;12.55;3.20;;;23.70;38.90;;;;;;5047230;28;20719;-60
2024/01/23 10:43:17;;;;;;;10.40;3.42;;;23.60;38.90;;;;;;5046015;28;20219;-58
2024/01/23 10:46:11;;;;;;;12.38;3.33;;;23.60;38.90;;;;;;5047311;28;20245;-59
2024/01/23 10:48:44;;;;;;;13.23;3.05;;;23.60;39.20;;;;;;5043926;28;20216;-58
2024/01/23 10:51:23;;;;;;;12.43;3.17;;;23.60;39.00;;;;;;5046935;28;20291;-60
2024/01/23 10:57:21;;;;;;;11.05;3.13;;;23.60;39.00;;;;;;5049463;28;20267;-56
2024/01/23 10:59:56;;;;;;;12.48;3.30;;;23.60;39.10;;;;;;5039491;28;20207;-56
2024/01/23 11:02:35;;;;;;;13.50;2.85;;;23.60;39.00;;;;;;5044396;28;20257;-55
2024/01/23 11:05:09;;;;;;;12.75;2.70;;;23.60;39.00;;;;;;5043110;28;20239;-58
2024/01/23 11:08:15;;;;;;;9.73;2.67;;;23.60;39.10;;;;;;5054988;28;20870;-57
2024/01/23 11:10:50;;;;;;;12.43;3.22;;;23.60;39.10;;;;;;5047629;28;20630;-55
2024/01/23 11:13:39;;;;;;;12.48;3.47;;;23.60;39.10;;;;;;5045488;28;20247;-55
2024/01/23 11:16:18;;;;;;;14.85;3.13;;;23.60;39.10;;;;;;5048156;28;20251;-58
2024/01/23 11:18:47;;;;;;;10.27;3.17;;;23.50;39.20;;;;;;5050806;28;20269;-56
2024/01/23 11:21:19;;;;;;;9.80;2.83;;;23.50;39.30;;;;;;5051249;28;20200;-55
2024/01/23 11:23:48;;;;;;;10.20;2.88;;;23.50;39.30;;;;;;5049060;28;20647;-55
2024/01/23 11:26:19;;;;;;;14.60;3.33;;;23.50;39.40;;;;;;5052578;28;20195;-52
2024/01/23 11:28:48;;;;;;;9.70;3.03;;;23.50;39.30;;;;;;5052154;28;20227;-52
2024/01/23 11:31:18;;;;;;;7.47;2.50;;;23.50;39.40;;;;;;5052153;28;20234;-52
2024/01/23 11:33:45;;;;;;;12.70;2.92;;;23.60;39.40;;;;;;5052860;28;20273;-52
2024/01/23 11:36:13;;;;;;;12.25;3.60;;;23.60;39.40;;;;;;5051911;28;20222;-52
2024/01/23 11:38:44;;;;;;;13.50;3.08;;;23.60;39.40;;;;;;5052722;28;20298;-56
2024/01/23 11:41:22;;;;;;;13.45;3.47;;;23.60;39.40;;;;;;5052392;28;20191;-53
2024/01/23 11:43:53;;;;;;;13.43;3.30;;;23.60;39.40;;;;;;5052966;28;20225;-55
2024/01/23 11:46:22;;;;;;;10.10;3.13;;;23.60;39.40;;;;;;5050998;28;20227;-54
2024/01/23 11:48:50;;;;;;;12.75;3.35;;;23.60;39.40;;;;;;5051392;28;20592;-53
2024/01/23 11:51:18;;;;;;;8.68;2.65;;;23.60;39.40;;;;;;5037415;28;20745;-52
2024/01/23 11:53:46;;;;;;;10.82;3.30;;;23.60;39.40;;;;;;5048080;28;20230;-54
2024/01/23 11:56:15;;;;;;;13.48;4.00;;;23.60;39.40;;;;;;5051891;28;20279;-53
2024/01/23 11:58:48;;;;;;;11.77;3.58;;;23.50;39.40;;;;;;5068837;28;20215;-51
2024/01/23 12:01:20;;;;;;;14.68;3.72;;;23.40;39.30;;;;;;5060185;28;20184;-54
2024/01/23 12:03:48;;;;;;;12.70;3.33;;;23.40;39.30;;;;;;5051523;28;20241;-53
2024/01/23 12:06:15;;;;;;;12.40;3.55;;;23.40;39.30;;;;;;5052510;28;20223;-55
2024/01/23 12:08:43;;;;;;;9.35;3.00;;;23.40;39.30;;;;;;5050505;28;20235;-55
2024/01/23 12:11:10;;;;;;;13.52;3.25;;;23.30;39.50;;;;;;5051668;28;20195;-53
2024/01/23 12:13:38;;;;;;;15.88;3.75;;;23.30;39.40;;;;;;5052791;28;20255;-53
2024/01/23 12:16:08;;;;;;;11.50;3.35;;;23.30;39.50;;;;;;5052248;28;20187;-55
2024/01/23 12:18:35;;;;;;;12.43;3.45;;;23.30;39.60;;;;;;5051671;28;20215;-53
2024/01/23 12:21:04;;;;;;;14.30;4.03;;;23.30;39.60;;;;;;5050834;28;20192;-54
2024/01/23 12:23:32;;;;;;;15.15;3.30;;;23.20;39.60;;;;;;5052073;28;20275;-54
2024/01/23 12:26:00;;;;;;;16.95;4.10;;;23.20;39.60;;;;;;5051566;28;20191;-51
2024/01/23 12:28:29;;;;;;;10.95;3.50;;;23.20;39.70;;;;;;5052124;28;20210;-53
2024/01/23 12:30:57;;;;;;;11.18;3.63;;;23.20;39.70;;;;;;5052360;28;20191;-55
2024/01/23 12:33:27;;;;;;;8.95;3.00;;;23.20;39.70;;;;;;5051740;28;20203;-51
2024/01/23 12:35:54;;;;;;;13.77;3.42;;;23.20;39.80;;;;;;5051189;28;20672;-52
2024/01/23 12:38:28;;;;;;;11.40;3.15;;;23.20;39.90;;;;;;5052325;28;20302;-55
2024/01/23 12:41:00;;;;;;;9.55;2.92;;;23.20;39.90;;;;;;5051128;28;20218;-55
2024/01/23 12:43:29;;;;;;;10.85;3.25;;;23.20;39.90;;;;;;5051943;28;20275;-54
2024/01/23 12:45:56;;;;;;;14.50;3.60;;;23.30;40.00;;;;;;5052528;28;20228;-53
2024/01/23 12:48:25;;;;;;;11.82;3.47;;;23.30;40.00;;;;;;5051470;28;20227;-55